• Join FlightAware (Why Join?)
  • Login
  • US Flag 
06:46PM EST


 

Airport Tracker/Info


-or-


 

Live Flight TrackerFlight Track Log ✈ SWA875 ✈ 03-May-2014 ✈ KOAK - KSAN

Flight Track Log - Related Links

Times and Time Zones

All times are in EDT time to prevent confusion due to time zone crossing. See the SWA875 flight status page for this flight to view local times or setup timezone preferences in your user account.

Time Position Orientation Groundspeed Altitude Reporting Facility
EDT Latitude Longitude Course Direction KTS MPH feet Rate Location/Type
02:57PM 37.7500 -122.2833 202° Southwest 191 220 2,900  Level Northern Cal TRACON
02:58PM 37.7667 -122.3333 293° West 212 244 6,300 2,880 Climbing Northern Cal TRACON
02:59PM 37.7000 -122.3833 211° Southwest 262 302 8,700 2,700 Climbing Northern Cal TRACON
02:59PM 37.6517 -122.3961 192° South 291 335 11,200 3,360 Climbing Oakland Center
03:00PM 37.5619 -122.4197 192° South 327 376 14,900 3,540 Climbing Oakland Center
03:02PM 37.1334 -122.4833 202° Southwest  Level FlightAware Approximate
03:02PM 37.4669 -122.4442 192° South 343 395 18,500  Level Oakland Center
03:03PM 37.3667 -122.4683 191° South 364 419 22,000 3,060 Climbing Oakland Center
03:04PM 37.2622 -122.4950 191° South 383 441 24,800 2,580 Climbing Oakland Center
03:05PM 37.1536 -122.5231 192° South 394 453 27,300 2,340 Climbing Oakland Center
03:06PM 37.0417 -122.5500 191° South 405 466 29,700 2,400 Climbing Oakland Center
03:07PM 36.9017 -122.5561 182° South 433 498 32,300 2,520 Climbing Oakland Center
03:08PM 36.7856 -122.5233 167° South 430 495 34,900 1,980 Climbing Oakland Center
03:10PM 36.5556 -122.4669 169° South 423 487 38,500 1,620 Climbing Oakland Center
03:11PM 36.4425 -122.4325 166° South 421 484 39,900 1,140 Climbing Oakland Center
03:12PM 36.3592 -122.3211 133° Southeast 451 519 40,900 480 Climbing Oakland Center
03:13PM 36.2844 -122.1953 126° Southeast 455 524 41,000  Climbing Oakland Center
03:14PM 36.2103 -122.0697 126° Southeast 454 522 41,000  Level Oakland Center
03:15PM 36.1222 -121.9222 126° Southeast 445 512 41,000  Level Oakland Center
03:16PM 36.0497 -121.8006 126° Southeast 443 510 41,000  Level Oakland Center
03:17PM 35.9783 -121.6864 128° Southeast 446 513 41,000  Level Oakland Center
03:18PM 35.9053 -121.5644 126° Southeast 445 512 41,000  Level Oakland Center
03:19PM 35.8308 -121.4417 127° Southeast 446 513 41,000  Level Oakland Center
03:20PM 35.7564 -121.3186 127° Southeast 449 517 41,000  Level Oakland Center
03:21PM 35.6672 -121.1725 127° Southeast 448 516 41,000  Level Oakland Center
03:22PM 35.5925 -121.0500 127° Southeast 448 516 41,000  Level Oakland Center
03:23PM 35.5181 -120.9300 127° Southeast 447 514 41,000  Level Oakland Center
03:24PM 35.4442 -120.8100 127° Southeast 444 511 41,000  Level Oakland Center
03:25PM 35.3722 -120.6908 126° Southeast 442 509 41,000  Level Oakland Center
03:26PM 35.3000 -120.5742 127° Southeast 441 507 41,000  Level Oakland Center
03:27PM 35.2139 -120.4339 127° Southeast 439 505 41,000  Level Oakland Center
03:28PM 35.1422 -120.3169 127° Southeast 437 503 41,000  Level Oakland Center
03:29PM 35.0681 -120.1992 128° Southeast 439 505 41,000  Level Oakland Center
03:30PM 34.9947 -120.0825 127° Southeast 439 505 41,000  Level Oakland Center
03:31PM 34.9219 -119.9650 127° Southeast 438 504 41,000  Level Oakland Center
03:32PM 34.8486 -119.8492 128° Southeast 436 502 41,000  Level Oakland Center
03:33PM 34.7756 -119.7314 127° Southeast 436 502 41,000  Level Oakland Center
03:34PM 34.7008 -119.6164 128° Southeast 436 502 41,000  Level Oakland Center
03:36PM 34.5989 -119.4556 128° Southeast 437 503 41,000  Level Los Angeles Center
03:37PM 34.5233 -119.3408 129° Southeast 437 503 41,000  Level Los Angeles Center
03:38PM 34.4339 -119.2003 128° Southeast 437 503 41,000  Level Los Angeles Center
03:39PM 34.3583 -119.0842 128° Southeast 437 503 41,000  Level Los Angeles Center
03:40PM 34.2831 -118.9692 128° Southeast 437 503 41,000  Level Los Angeles Center
03:41PM 34.2078 -118.8533 128° Southeast 437 503 41,000 -120 Level Los Angeles Center
03:42PM 34.1319 -118.7358 128° Southeast 438 504 40,800 -600 Descending Los Angeles Center
03:43PM 34.0561 -118.6197 128° Southeast 439 505 39,800 -1,020 Descending Los Angeles Center
03:44PM 33.9656 -118.4811 128° Southeast 439 505 38,700 -1,020 Descending Los Angeles Center
03:45PM 33.8867 -118.3694 130° Southeast 433 498 37,700 -1,680 Descending Los Angeles Center
03:46PM 33.7950 -118.2594 135° Southeast 450 518 35,300 -2,820 Descending Los Angeles Center
03:47PM 33.7058 -118.1400 132° Southeast 457 526 31,900 -3,000 Descending Los Angeles Center
03:48PM 33.6181 -118.0294 134° Southeast 457 526 29,200 -2,520 Descending Los Angeles Center
03:49PM 33.5339 -117.9239 134° Southeast 439 505 26,700 -2,520 Descending Los Angeles Center
03:50PM 33.4667 -117.8333 132° Southeast 403 464 24,500 -2,460 Descending Southern California TRACON
03:51PM 33.3833 -117.7333 135° Southeast 399 459 22,200 -2,580 Descending Southern California TRACON
03:52PM 33.3000 -117.6333 135° Southeast 396 456 19,400 -2,580 Descending Southern California TRACON
03:53PM 33.2333 -117.5500 134° Southeast 388 447 17,100 -2,400 Descending Southern California TRACON
03:54PM 33.1500 -117.4667 140° Southeast 370 426 14,700 -2,160 Descending Southern California TRACON
03:55PM 33.0667 -117.4000 146° Southeast 349 402 12,800 -1,800 Descending Southern California TRACON
03:56PM 32.9833 -117.3500 153° Southeast 329 379 11,200 -1,380 Descending Southern California TRACON
03:57PM 32.9167 -117.3000 148° Southeast 296 341 10,100 -1,560 Descending Southern California TRACON
03:58PM 32.8500 -117.2333 140° Southeast 292 336 8,100 -1,740 Descending Southern California TRACON
03:59PM 32.8000 -117.1667 132° Southeast 277 319 6,700 -1,260 Descending Southern California TRACON
04:00PM 32.7833 -117.0833 103° East 240 276 5,600 -900 Descending Southern California TRACON
04:01PM 32.7500 -117.0333 128° Southeast 220 253 5,000 -840 Descending Southern California TRACON
04:02PM 32.7000 -117.0500 196° South 199 229 4,000 -1,200 Descending Southern California TRACON
04:03PM 32.7167 -117.1000 292° West 159 183 2,700 -1,500 Descending Southern California TRACON
04:04PM 32.7167 -117.1500 270° West 156 180 1,000 -1,500 Descending Southern California TRACON
04:05PM 32.7283 -117.1664 310° West 157 181 300 -1,080 Descending Los Angeles Center
04:07PM 32.7333 -117.1833 235° Southwest  Level FlightAware Approximate
04:14PM 32.7336 -117.1897 235° Southwest  Level Estimated
04:15PM 32.7336 -117.1897 235° Southwest  Level Estimated